sensor_id;sensor_type;location;lat;lon;timestamp;temperature;humidity
71754;DHT22;59593;51.716;7.016;2024-02-26T00:01:54;5.60;99.90
71754;DHT22;59593;51.716;7.016;2024-02-26T00:04:20;5.50;99.90
71754;DHT22;59593;51.716;7.016;2024-02-26T00:06:47;5.60;99.90
71754;DHT22;59593;51.716;7.016;2024-02-26T00:09:13;5.60;99.90
71754;DHT22;59593;51.716;7.016;2024-02-26T00:11:39;5.60;99.90
71754;DHT22;59593;51.716;7.016;2024-02-26T00:14:04;5.70;99.90
71754;DHT22;59593;51.716;7.016;2024-02-26T00:16:30;5.80;99.90
71754;DHT22;59593;51.716;7.016;2024-02-26T00:18:56;5.70;99.90
71754;DHT22;59593;51.716;7.016;2024-02-26T00:21:21;5.70;99.90
71754;DHT22;59593;51.716;7.016;2024-02-26T00:23:49;5.70;99.90
71754;DHT22;59593;51.716;7.016;2024-02-26T00:26:14;5.70;99.90
71754;DHT22;59593;51.716;7.016;2024-02-26T00:28:41;5.80;99.90
71754;DHT22;59593;51.716;7.016;2024-02-26T00:31:06;5.70;99.90
71754;DHT22;59593;51.716;7.016;2024-02-26T00:33:32;5.80;99.90
71754;DHT22;59593;51.716;7.016;2024-02-26T00:35:57;5.80;99.90
71754;DHT22;59593;51.716;7.016;2024-02-26T00:38:23;5.80;99.90
71754;DHT22;59593;51.716;7.016;2024-02-26T00:40:49;5.90;99.90
71754;DHT22;59593;51.716;7.016;2024-02-26T00:43:14;5.80;99.90
71754;DHT22;59593;51.716;7.016;2024-02-26T00:45:40;5.80;99.90
71754;DHT22;59593;51.716;7.016;2024-02-26T00:48:06;5.80;99.90
71754;DHT22;59593;51.716;7.016;2024-02-26T00:50:33;5.70;99.90
71754;DHT22;59593;51.716;7.016;2024-02-26T00:52:59;5.70;99.90
71754;DHT22;59593;51.716;7.016;2024-02-26T00:55:24;5.80;99.90
71754;DHT22;59593;51.716;7.016;2024-02-26T00:57:50;5.80;99.90
71754;DHT22;59593;51.716;7.016;2024-02-26T01:00:16;5.80;99.90
71754;DHT22;59593;51.716;7.016;2024-02-26T01:02:41;5.80;99.90
71754;DHT22;59593;51.716;7.016;2024-02-26T01:05:08;5.80;99.90
71754;DHT22;59593;51.716;7.016;2024-02-26T01:07:36;5.80;99.90
71754;DHT22;59593;51.716;7.016;2024-02-26T01:10:02;5.80;99.90
71754;DHT22;59593;51.716;7.016;2024-02-26T01:12:28;5.80;99.90
71754;DHT22;59593;51.716;7.016;2024-02-26T01:14:54;5.80;99.90
71754;DHT22;59593;51.716;7.016;2024-02-26T01:17:19;5.90;99.90
71754;DHT22;59593;51.716;7.016;2024-02-26T01:19:45;5.90;99.90
71754;DHT22;59593;51.716;7.016;2024-02-26T01:22:11;5.80;99.90
71754;DHT22;59593;51.716;7.016;2024-02-26T01:24:36;5.80;99.90
71754;DHT22;59593;51.716;7.016;2024-02-26T01:27:02;5.80;99.90
71754;DHT22;59593;51.716;7.016;2024-02-26T01:29:27;5.80;99.90
71754;DHT22;59593;51.716;7.016;2024-02-26T01:31:53;5.80;99.90
71754;DHT22;59593;51.716;7.016;2024-02-26T01:34:20;5.80;99.90
71754;DHT22;59593;51.716;7.016;2024-02-26T01:36:46;5.80;99.90
71754;DHT22;59593;51.716;7.016;2024-02-26T01:39:11;5.80;99.90
71754;DHT22;59593;51.716;7.016;2024-02-26T01:41:38;5.80;99.90
71754;DHT22;59593;51.716;7.016;2024-02-26T01:44:04;5.80;99.90
71754;DHT22;59593;51.716;7.016;2024-02-26T01:46:31;5.90;99.90
71754;DHT22;59593;51.716;7.016;2024-02-26T01:48:58;5.90;99.90
71754;DHT22;59593;51.716;7.016;2024-02-26T01:51:24;5.80;99.90
71754;DHT22;59593;51.716;7.016;2024-02-26T01:53:51;5.80;99.90
71754;DHT22;59593;51.716;7.016;2024-02-26T01:56:17;5.90;99.90
71754;DHT22;59593;51.716;7.016;2024-02-26T01:58:43;5.90;99.90
71754;DHT22;59593;51.716;7.016;2024-02-26T02:01:09;5.90;99.90
71754;DHT22;59593;51.716;7.016;2024-02-26T02:03:36;5.90;99.90
71754;DHT22;59593;51.716;7.016;2024-02-26T02:06:03;5.90;99.90
71754;DHT22;59593;51.716;7.016;2024-02-26T02:08:28;5.90;99.90
71754;DHT22;59593;51.716;7.016;2024-02-26T02:10:55;5.90;99.90
71754;DHT22;59593;51.716;7.016;2024-02-26T02:13:20;5.90;99.90
71754;DHT22;59593;51.716;7.016;2024-02-26T02:15:46;5.90;99.90
71754;DHT22;59593;51.716;7.016;2024-02-26T02:18:12;5.90;99.90
71754;DHT22;59593;51.716;7.016;2024-02-26T02:20:38;5.90;99.90
71754;DHT22;59593;51.716;7.016;2024-02-26T02:23:03;6.00;99.90
71754;DHT22;59593;51.716;7.016;2024-02-26T02:25:29;6.00;99.90
71754;DHT22;59593;51.716;7.016;2024-02-26T02:27:55;6.00;99.90
71754;DHT22;59593;51.716;7.016;2024-02-26T02:30:24;6.00;99.90
71754;DHT22;59593;51.716;7.016;2024-02-26T02:32:51;6.00;99.90
71754;DHT22;59593;51.716;7.016;2024-02-26T02:35:17;6.00;99.90
71754;DHT22;59593;51.716;7.016;2024-02-26T02:37:42;5.90;99.90
71754;DHT22;59593;51.716;7.016;2024-02-26T02:40:08;5.90;99.90
71754;DHT22;59593;51.716;7.016;2024-02-26T02:42:33;5.90;99.90
71754;DHT22;59593;51.716;7.016;2024-02-26T02:44:59;5.90;99.90
71754;DHT22;59593;51.716;7.016;2024-02-26T02:47:25;5.90;99.90
71754;DHT22;59593;51.716;7.016;2024-02-26T02:49:50;5.90;99.90
71754;DHT22;59593;51.716;7.016;2024-02-26T02:52:16;5.90;99.90
71754;DHT22;59593;51.716;7.016;2024-02-26T02:54:41;6.00;99.90
71754;DHT22;59593;51.716;7.016;2024-02-26T02:57:08;5.90;99.90
71754;DHT22;59593;51.716;7.016;2024-02-26T02:59:34;5.90;99.90
71754;DHT22;59593;51.716;7.016;2024-02-26T03:01:59;5.90;99.90
71754;DHT22;59593;51.716;7.016;2024-02-26T03:04:25;5.90;99.90
71754;DHT22;59593;51.716;7.016;2024-02-26T03:06:50;5.90;99.90
71754;DHT22;59593;51.716;7.016;2024-02-26T03:09:16;5.90;99.90
71754;DHT22;59593;51.716;7.016;2024-02-26T03:11:42;5.90;99.90
71754;DHT22;59593;51.716;7.016;2024-02-26T03:14:07;5.90;99.90
71754;DHT22;59593;51.716;7.016;2024-02-26T03:16:34;6.00;99.90
71754;DHT22;59593;51.716;7.016;2024-02-26T03:18:59;6.10;99.90
71754;DHT22;59593;51.716;7.016;2024-02-26T03:21:26;6.10;99.90
71754;DHT22;59593;51.716;7.016;2024-02-26T03:23:52;6.00;99.90
71754;DHT22;59593;51.716;7.016;2024-02-26T03:26:18;6.10;99.90
71754;DHT22;59593;51.716;7.016;2024-02-26T03:28:44;6.20;99.90
71754;DHT22;59593;51.716;7.016;2024-02-26T03:31:10;6.10;99.90
71754;DHT22;59593;51.716;7.016;2024-02-26T03:33:36;6.00;99.90
71754;DHT22;59593;51.716;7.016;2024-02-26T03:36:02;6.10;99.90
71754;DHT22;59593;51.716;7.016;2024-02-26T03:38:28;6.10;99.90
71754;DHT22;59593;51.716;7.016;2024-02-26T03:40:54;6.10;99.90
71754;DHT22;59593;51.716;7.016;2024-02-26T03:43:20;6.10;99.90
71754;DHT22;59593;51.716;7.016;2024-02-26T03:45:45;6.00;99.90
71754;DHT22;59593;51.716;7.016;2024-02-26T03:48:11;6.10;99.90
71754;DHT22;59593;51.716;7.016;2024-02-26T03:50:37;6.10;99.90
71754;DHT22;59593;51.716;7.016;2024-02-26T03:53:02;6.00;99.90
71754;DHT22;59593;51.716;7.016;2024-02-26T03:55:28;6.00;99.90
71754;DHT22;59593;51.716;7.016;2024-02-26T03:57:54;5.90;99.90
71754;DHT22;59593;51.716;7.016;2024-02-26T04:00:20;5.90;99.90
71754;DHT22;59593;51.716;7.016;2024-02-26T04:02:47;5.80;99.90
71754;DHT22;59593;51.716;7.016;2024-02-26T04:05:13;5.90;99.90
71754;DHT22;59593;51.716;7.016;2024-02-26T04:07:42;5.90;99.90
71754;DHT22;59593;51.716;7.016;2024-02-26T04:10:11;5.90;99.90
71754;DHT22;59593;51.716;7.016;2024-02-26T04:12:41;5.90;99.90
71754;DHT22;59593;51.716;7.016;2024-02-26T04:15:08;5.80;99.90
71754;DHT22;59593;51.716;7.016;2024-02-26T04:17:34;5.80;99.90
71754;DHT22;59593;51.716;7.016;2024-02-26T04:20:00;5.80;99.90
71754;DHT22;59593;51.716;7.016;2024-02-26T04:22:25;5.70;99.90
71754;DHT22;59593;51.716;7.016;2024-02-26T04:24:51;5.70;99.90
71754;DHT22;59593;51.716;7.016;2024-02-26T04:27:16;5.70;99.90
71754;DHT22;59593;51.716;7.016;2024-02-26T04:29:42;5.70;99.90
71754;DHT22;59593;51.716;7.016;2024-02-26T04:32:08;5.70;99.90
71754;DHT22;59593;51.716;7.016;2024-02-26T04:34:33;5.70;99.90
71754;DHT22;59593;51.716;7.016;2024-02-26T04:36:59;5.80;99.90
71754;DHT22;59593;51.716;7.016;2024-02-26T04:39:24;5.80;99.90
71754;DHT22;59593;51.716;7.016;2024-02-26T04:41:51;5.80;99.90
71754;DHT22;59593;51.716;7.016;2024-02-26T04:44:17;5.70;99.90
71754;DHT22;59593;51.716;7.016;2024-02-26T04:46:42;5.80;99.90
71754;DHT22;59593;51.716;7.016;2024-02-26T04:49:09;5.80;99.90
71754;DHT22;59593;51.716;7.016;2024-02-26T04:51:34;5.70;99.90
71754;DHT22;59593;51.716;7.016;2024-02-26T04:54:00;5.70;99.90
71754;DHT22;59593;51.716;7.016;2024-02-26T04:56:25;5.70;99.90
71754;DHT22;59593;51.716;7.016;2024-02-26T04:58:51;5.60;99.90
71754;DHT22;59593;51.716;7.016;2024-02-26T05:01:17;5.70;99.90
71754;DHT22;59593;51.716;7.016;2024-02-26T05:03:44;5.70;99.90
71754;DHT22;59593;51.716;7.016;2024-02-26T05:06:09;5.70;99.90
71754;DHT22;59593;51.716;7.016;2024-02-26T05:08:35;5.70;99.90
71754;DHT22;59593;51.716;7.016;2024-02-26T05:11:02;5.70;99.90
71754;DHT22;59593;51.716;7.016;2024-02-26T05:13:29;5.70;99.90
71754;DHT22;59593;51.716;7.016;2024-02-26T05:15:54;5.60;99.90
71754;DHT22;59593;51.716;7.016;2024-02-26T05:18:20;5.60;99.90
71754;DHT22;59593;51.716;7.016;2024-02-26T05:20:45;5.60;99.90
71754;DHT22;59593;51.716;7.016;2024-02-26T05:23:11;5.60;99.90
71754;DHT22;59593;51.716;7.016;2024-02-26T05:25:37;5.50;99.90
71754;DHT22;59593;51.716;7.016;2024-02-26T05:28:03;5.60;99.90
71754;DHT22;59593;51.716;7.016;2024-02-26T05:30:28;5.50;99.90
71754;DHT22;59593;51.716;7.016;2024-02-26T05:32:54;5.40;99.90
71754;DHT22;59593;51.716;7.016;2024-02-26T05:35:20;5.50;99.90
71754;DHT22;59593;51.716;7.016;2024-02-26T05:37:45;5.50;99.90
71754;DHT22;59593;51.716;7.016;2024-02-26T05:40:11;5.50;99.90
71754;DHT22;59593;51.716;7.016;2024-02-26T05:42:37;5.30;99.90
71754;DHT22;59593;51.716;7.016;2024-02-26T05:45:03;5.40;99.90
71754;DHT22;59593;51.716;7.016;2024-02-26T05:47:35;5.50;99.90
71754;DHT22;59593;51.716;7.016;2024-02-26T05:50:01;5.60;99.90
71754;DHT22;59593;51.716;7.016;2024-02-26T05:52:27;5.50;99.90
71754;DHT22;59593;51.716;7.016;2024-02-26T05:54:55;5.60;99.90
71754;DHT22;59593;51.716;7.016;2024-02-26T05:57:20;5.60;99.90
71754;DHT22;59593;51.716;7.016;2024-02-26T05:59:46;5.60;99.90
71754;DHT22;59593;51.716;7.016;2024-02-26T06:02:11;5.60;99.90
71754;DHT22;59593;51.716;7.016;2024-02-26T06:04:37;5.60;99.90
71754;DHT22;59593;51.716;7.016;2024-02-26T06:07:03;5.60;99.90
71754;DHT22;59593;51.716;7.016;2024-02-26T06:09:28;5.60;99.90
71754;DHT22;59593;51.716;7.016;2024-02-26T06:11:54;5.60;99.90
71754;DHT22;59593;51.716;7.016;2024-02-26T06:14:20;5.60;99.90
71754;DHT22;59593;51.716;7.016;2024-02-26T06:16:46;5.50;99.90
71754;DHT22;59593;51.716;7.016;2024-02-26T06:19:12;5.50;99.90
71754;DHT22;59593;51.716;7.016;2024-02-26T06:21:37;5.60;99.90
71754;DHT22;59593;51.716;7.016;2024-02-26T06:24:03;5.50;99.90
71754;DHT22;59593;51.716;7.016;2024-02-26T06:26:29;5.50;99.90
71754;DHT22;59593;51.716;7.016;2024-02-26T06:28:55;5.50;99.90
71754;DHT22;59593;51.716;7.016;2024-02-26T06:31:22;5.50;99.90
71754;DHT22;59593;51.716;7.016;2024-02-26T06:33:49;5.50;99.90
71754;DHT22;59593;51.716;7.016;2024-02-26T06:36:15;5.50;99.90
71754;DHT22;59593;51.716;7.016;2024-02-26T06:38:41;5.50;99.90
71754;DHT22;59593;51.716;7.016;2024-02-26T06:41:06;5.50;99.90
71754;DHT22;59593;51.716;7.016;2024-02-26T06:43:32;5.60;99.90
71754;DHT22;59593;51.716;7.016;2024-02-26T06:45:58;5.60;99.90
71754;DHT22;59593;51.716;7.016;2024-02-26T06:48:24;5.50;99.90
71754;DHT22;59593;51.716;7.016;2024-02-26T06:50:50;5.60;99.90
71754;DHT22;59593;51.716;7.016;2024-02-26T06:53:16;5.60;99.90
71754;DHT22;59593;51.716;7.016;2024-02-26T06:55:42;5.60;99.90
71754;DHT22;59593;51.716;7.016;2024-02-26T06:58:08;5.60;99.90
71754;DHT22;59593;51.716;7.016;2024-02-26T07:00:34;5.50;99.90
71754;DHT22;59593;51.716;7.016;2024-02-26T07:02:59;5.60;99.90
71754;DHT22;59593;51.716;7.016;2024-02-26T07:05:25;5.60;99.90
71754;DHT22;59593;51.716;7.016;2024-02-26T07:07:51;5.60;99.90
71754;DHT22;59593;51.716;7.016;2024-02-26T07:10:16;5.60;99.90
71754;DHT22;59593;51.716;7.016;2024-02-26T07:12:43;5.60;99.90
71754;DHT22;59593;51.716;7.016;2024-02-26T07:15:09;5.60;99.90
71754;DHT22;59593;51.716;7.016;2024-02-26T07:17:35;5.60;99.90
71754;DHT22;59593;51.716;7.016;2024-02-26T07:20:01;5.60;99.90
71754;DHT22;59593;51.716;7.016;2024-02-26T07:22:29;5.50;99.90
71754;DHT22;59593;51.716;7.016;2024-02-26T07:24:55;5.60;99.90
71754;DHT22;59593;51.716;7.016;2024-02-26T07:27:21;5.60;99.90
71754;DHT22;59593;51.716;7.016;2024-02-26T07:29:46;5.60;99.90
71754;DHT22;59593;51.716;7.016;2024-02-26T07:32:12;5.60;99.90
71754;DHT22;59593;51.716;7.016;2024-02-26T07:34:38;5.60;99.90
71754;DHT22;59593;51.716;7.016;2024-02-26T07:37:10;5.60;99.90
71754;DHT22;59593;51.716;7.016;2024-02-26T07:39:35;5.70;99.90
71754;DHT22;59593;51.716;7.016;2024-02-26T07:42:02;5.70;99.90
71754;DHT22;59593;51.716;7.016;2024-02-26T07:44:27;5.70;99.90
71754;DHT22;59593;51.716;7.016;2024-02-26T07:46:53;5.80;99.90
71754;DHT22;59593;51.716;7.016;2024-02-26T07:49:18;5.70;99.90
71754;DHT22;59593;51.716;7.016;2024-02-26T07:51:44;5.70;99.90
71754;DHT22;59593;51.716;7.016;2024-02-26T07:54:10;5.80;99.90
71754;DHT22;59593;51.716;7.016;2024-02-26T07:56:35;5.80;99.90
71754;DHT22;59593;51.716;7.016;2024-02-26T07:59:01;5.80;99.90
71754;DHT22;59593;51.716;7.016;2024-02-26T08:01:26;5.90;99.90
71754;DHT22;59593;51.716;7.016;2024-02-26T08:03:55;5.90;99.90
71754;DHT22;59593;51.716;7.016;2024-02-26T08:06:21;5.90;99.90
71754;DHT22;59593;51.716;7.016;2024-02-26T08:08:47;5.90;99.90
71754;DHT22;59593;51.716;7.016;2024-02-26T08:11:14;6.00;99.90
71754;DHT22;59593;51.716;7.016;2024-02-26T08:13:41;5.90;99.90
71754;DHT22;59593;51.716;7.016;2024-02-26T08:16:06;5.90;99.90
71754;DHT22;59593;51.716;7.016;2024-02-26T08:18:32;6.00;99.90
71754;DHT22;59593;51.716;7.016;2024-02-26T08:20:57;6.00;99.90
71754;DHT22;59593;51.716;7.016;2024-02-26T08:23:23;6.10;99.90
71754;DHT22;59593;51.716;7.016;2024-02-26T08:25:49;6.10;99.90
71754;DHT22;59593;51.716;7.016;2024-02-26T08:28:14;6.10;99.90
71754;DHT22;59593;51.716;7.016;2024-02-26T08:30:43;6.10;99.90
71754;DHT22;59593;51.716;7.016;2024-02-26T08:33:08;6.20;99.90
71754;DHT22;59593;51.716;7.016;2024-02-26T08:35:36;6.20;99.90
71754;DHT22;59593;51.716;7.016;2024-02-26T08:38:02;6.30;99.90
71754;DHT22;59593;51.716;7.016;2024-02-26T08:40:28;6.20;99.90
71754;DHT22;59593;51.716;7.016;2024-02-26T08:42:53;6.30;99.90
71754;DHT22;59593;51.716;7.016;2024-02-26T08:45:19;6.30;99.90
71754;DHT22;59593;51.716;7.016;2024-02-26T08:47:45;6.40;99.90
71754;DHT22;59593;51.716;7.016;2024-02-26T08:50:11;6.40;99.90
71754;DHT22;59593;51.716;7.016;2024-02-26T08:52:38;6.40;99.90
71754;DHT22;59593;51.716;7.016;2024-02-26T08:55:04;6.50;99.90
71754;DHT22;59593;51.716;7.016;2024-02-26T08:57:33;6.50;99.90
71754;DHT22;59593;51.716;7.016;2024-02-26T08:59:59;6.50;99.90
71754;DHT22;59593;51.716;7.016;2024-02-26T09:02:26;6.50;99.90
71754;DHT22;59593;51.716;7.016;2024-02-26T09:04:51;6.40;99.90
71754;DHT22;59593;51.716;7.016;2024-02-26T09:07:19;6.50;99.90
71754;DHT22;59593;51.716;7.016;2024-02-26T09:09:45;6.50;99.90
71754;DHT22;59593;51.716;7.016;2024-02-26T09:12:10;6.60;99.90
71754;DHT22;59593;51.716;7.016;2024-02-26T09:14:36;6.70;99.90
71754;DHT22;59593;51.716;7.016;2024-02-26T09:17:02;6.70;99.90
71754;DHT22;59593;51.716;7.016;2024-02-26T09:19:28;6.80;99.90
71754;DHT22;59593;51.716;7.016;2024-02-26T09:21:53;6.80;99.90
71754;DHT22;59593;51.716;7.016;2024-02-26T09:24:23;6.80;99.90
71754;DHT22;59593;51.716;7.016;2024-02-26T09:26:49;6.90;99.90
71754;DHT22;59593;51.716;7.016;2024-02-26T09:29:14;6.90;99.90
71754;DHT22;59593;51.716;7.016;2024-02-26T09:31:40;6.90;99.90
71754;DHT22;59593;51.716;7.016;2024-02-26T09:34:07;6.90;99.90
71754;DHT22;59593;51.716;7.016;2024-02-26T09:36:33;6.90;99.90
71754;DHT22;59593;51.716;7.016;2024-02-26T09:38:59;6.70;99.90
71754;DHT22;59593;51.716;7.016;2024-02-26T09:41:28;6.70;99.90
71754;DHT22;59593;51.716;7.016;2024-02-26T09:43:57;6.80;99.90
71754;DHT22;59593;51.716;7.016;2024-02-26T09:46:23;6.70;99.90
71754;DHT22;59593;51.716;7.016;2024-02-26T09:48:50;6.70;99.90
71754;DHT22;59593;51.716;7.016;2024-02-26T09:51:16;6.70;99.90
71754;DHT22;59593;51.716;7.016;2024-02-26T09:53:43;6.80;99.90
71754;DHT22;59593;51.716;7.016;2024-02-26T09:56:12;6.70;99.90
71754;DHT22;59593;51.716;7.016;2024-02-26T09:58:39;6.80;99.90
71754;DHT22;59593;51.716;7.016;2024-02-26T10:01:11;6.80;99.90
71754;DHT22;59593;51.716;7.016;2024-02-26T10:03:40;6.90;99.90
71754;DHT22;59593;51.716;7.016;2024-02-26T10:06:08;6.90;99.90
71754;DHT22;59593;51.716;7.016;2024-02-26T10:08:35;6.80;99.90
71754;DHT22;59593;51.716;7.016;2024-02-26T10:11:01;6.90;99.90
71754;DHT22;59593;51.716;7.016;2024-02-26T10:13:26;6.90;99.90
71754;DHT22;59593;51.716;7.016;2024-02-26T10:15:52;6.80;99.90
71754;DHT22;59593;51.716;7.016;2024-02-26T10:18:18;6.80;99.90
71754;DHT22;59593;51.716;7.016;2024-02-26T10:20:59;6.70;99.90
71754;DHT22;59593;51.716;7.016;2024-02-26T10:23:26;6.70;99.90
71754;DHT22;59593;51.716;7.016;2024-02-26T10:25:55;6.80;99.90
71754;DHT22;59593;51.716;7.016;2024-02-26T10:28:21;6.80;99.90
71754;DHT22;59593;51.716;7.016;2024-02-26T10:30:47;6.70;99.90
71754;DHT22;59593;51.716;7.016;2024-02-26T10:33:12;6.90;99.90
71754;DHT22;59593;51.716;7.016;2024-02-26T10:35:47;6.70;99.90
71754;DHT22;59593;51.716;7.016;2024-02-26T10:38:13;6.70;99.90
71754;DHT22;59593;51.716;7.016;2024-02-26T10:40:42;6.80;99.90
71754;DHT22;59593;51.716;7.016;2024-02-26T10:43:07;6.80;99.90
71754;DHT22;59593;51.716;7.016;2024-02-26T10:45:33;6.90;99.90
71754;DHT22;59593;51.716;7.016;2024-02-26T10:48:00;6.80;99.90
71754;DHT22;59593;51.716;7.016;2024-02-26T10:50:26;6.70;99.90
71754;DHT22;59593;51.716;7.016;2024-02-26T10:52:52;6.70;99.90
71754;DHT22;59593;51.716;7.016;2024-02-26T10:55:20;6.70;99.90
71754;DHT22;59593;51.716;7.016;2024-02-26T10:57:47;6.80;99.90
71754;DHT22;59593;51.716;7.016;2024-02-26T11:00:14;6.80;99.90
71754;DHT22;59593;51.716;7.016;2024-02-26T11:02:41;6.70;99.90
71754;DHT22;59593;51.716;7.016;2024-02-26T11:05:07;6.70;99.90
71754;DHT22;59593;51.716;7.016;2024-02-26T11:07:37;6.70;99.90
71754;DHT22;59593;51.716;7.016;2024-02-26T11:10:04;6.70;99.90
71754;DHT22;59593;51.716;7.016;2024-02-26T11:12:32;6.80;99.90
71754;DHT22;59593;51.716;7.016;2024-02-26T11:14:59;6.90;99.90
71754;DHT22;59593;51.716;7.016;2024-02-26T11:17:28;7.00;99.90
71754;DHT22;59593;51.716;7.016;2024-02-26T11:19:57;6.80;99.90
71754;DHT22;59593;51.716;7.016;2024-02-26T11:22:24;6.90;99.90
71754;DHT22;59593;51.716;7.016;2024-02-26T11:24:52;6.80;99.90
71754;DHT22;59593;51.716;7.016;2024-02-26T11:27:19;6.90;99.90
71754;DHT22;59593;51.716;7.016;2024-02-26T11:29:52;6.80;99.90
71754;DHT22;59593;51.716;7.016;2024-02-26T11:32:20;6.80;99.90
71754;DHT22;59593;51.716;7.016;2024-02-26T11:34:46;6.90;99.90
71754;DHT22;59593;51.716;7.016;2024-02-26T11:37:16;6.90;99.90
71754;DHT22;59593;51.716;7.016;2024-02-26T11:39:43;6.90;99.90
71754;DHT22;59593;51.716;7.016;2024-02-26T11:42:14;6.90;99.90
71754;DHT22;59593;51.716;7.016;2024-02-26T11:44:40;6.90;99.90
71754;DHT22;59593;51.716;7.016;2024-02-26T11:47:21;6.90;99.90
71754;DHT22;59593;51.716;7.016;2024-02-26T11:49:47;6.90;99.90
71754;DHT22;59593;51.716;7.016;2024-02-26T11:52:14;6.90;99.90
71754;DHT22;59593;51.716;7.016;2024-02-26T11:57:26;6.90;99.90
71754;DHT22;59593;51.716;7.016;2024-02-26T11:59:56;6.90;99.90
71754;DHT22;59593;51.716;7.016;2024-02-26T12:05:18;6.80;99.90
71754;DHT22;59593;51.716;7.016;2024-02-26T12:10:21;7.00;99.90
71754;DHT22;59593;51.716;7.016;2024-02-26T12:12:59;7.10;99.90
71754;DHT22;59593;51.716;7.016;2024-02-26T12:15:32;6.90;99.90
71754;DHT22;59593;51.716;7.016;2024-02-26T12:18:01;7.00;99.90
71754;DHT22;59593;51.716;7.016;2024-02-26T12:20:27;6.80;99.90
71754;DHT22;59593;51.716;7.016;2024-02-26T12:22:53;6.80;99.90
71754;DHT22;59593;51.716;7.016;2024-02-26T12:25:30;6.70;99.90
71754;DHT22;59593;51.716;7.016;2024-02-26T12:27:57;6.80;99.90
71754;DHT22;59593;51.716;7.016;2024-02-26T12:30:23;6.90;99.90
71754;DHT22;59593;51.716;7.016;2024-02-26T12:32:50;6.90;99.90
71754;DHT22;59593;51.716;7.016;2024-02-26T12:35:16;6.90;99.90
71754;DHT22;59593;51.716;7.016;2024-02-26T12:37:43;6.90;99.90
71754;DHT22;59593;51.716;7.016;2024-02-26T12:40:09;7.00;99.90
71754;DHT22;59593;51.716;7.016;2024-02-26T12:42:36;7.00;99.90
71754;DHT22;59593;51.716;7.016;2024-02-26T12:45:07;7.10;99.90
71754;DHT22;59593;51.716;7.016;2024-02-26T12:47:39;7.00;99.90
71754;DHT22;59593;51.716;7.016;2024-02-26T12:50:06;7.10;99.90
71754;DHT22;59593;51.716;7.016;2024-02-26T12:52:34;7.10;99.90
71754;DHT22;59593;51.716;7.016;2024-02-26T12:55:01;7.00;99.90
71754;DHT22;59593;51.716;7.016;2024-02-26T12:57:32;7.00;99.90
71754;DHT22;59593;51.716;7.016;2024-02-26T12:59:59;7.10;99.90
71754;DHT22;59593;51.716;7.016;2024-02-26T13:02:26;7.00;99.90
71754;DHT22;59593;51.716;7.016;2024-02-26T13:04:52;7.10;99.90
71754;DHT22;59593;51.716;7.016;2024-02-26T13:07:19;7.20;99.90
71754;DHT22;59593;51.716;7.016;2024-02-26T13:09:45;7.10;99.90
71754;DHT22;59593;51.716;7.016;2024-02-26T13:12:12;7.10;99.90
71754;DHT22;59593;51.716;7.016;2024-02-26T13:14:39;7.10;99.90
71754;DHT22;59593;51.716;7.016;2024-02-26T13:17:05;7.00;99.90
71754;DHT22;59593;51.716;7.016;2024-02-26T13:19:30;7.00;99.90
71754;DHT22;59593;51.716;7.016;2024-02-26T13:21:56;7.00;99.90
71754;DHT22;59593;51.716;7.016;2024-02-26T13:24:28;7.10;99.90
71754;DHT22;59593;51.716;7.016;2024-02-26T13:26:56;7.10;99.90
71754;DHT22;59593;51.716;7.016;2024-02-26T13:29:22;7.00;99.90
71754;DHT22;59593;51.716;7.016;2024-02-26T13:31:47;7.00;99.90
71754;DHT22;59593;51.716;7.016;2024-02-26T13:34:29;7.10;99.90
71754;DHT22;59593;51.716;7.016;2024-02-26T13:36:56;7.10;99.90
71754;DHT22;59593;51.716;7.016;2024-02-26T13:39:26;7.20;99.90
71754;DHT22;59593;51.716;7.016;2024-02-26T13:41:53;7.20;99.90
71754;DHT22;59593;51.716;7.016;2024-02-26T13:44:22;7.20;99.90
71754;DHT22;59593;51.716;7.016;2024-02-26T13:46:48;7.00;99.90
71754;DHT22;59593;51.716;7.016;2024-02-26T13:49:14;7.10;99.90
71754;DHT22;59593;51.716;7.016;2024-02-26T13:51:40;7.00;99.90
71754;DHT22;59593;51.716;7.016;2024-02-26T13:54:06;7.00;99.90
71754;DHT22;59593;51.716;7.016;2024-02-26T13:56:33;6.90;99.90
71754;DHT22;59593;51.716;7.016;2024-02-26T13:58:58;6.90;99.90
71754;DHT22;59593;51.716;7.016;2024-02-26T14:01:25;6.90;99.90
71754;DHT22;59593;51.716;7.016;2024-02-26T14:03:50;6.90;99.90
71754;DHT22;59593;51.716;7.016;2024-02-26T14:06:16;6.90;99.90
71754;DHT22;59593;51.716;7.016;2024-02-26T14:08:42;7.00;99.90
71754;DHT22;59593;51.716;7.016;2024-02-26T14:11:08;7.00;99.90
71754;DHT22;59593;51.716;7.016;2024-02-26T14:13:33;7.10;99.90
71754;DHT22;59593;51.716;7.016;2024-02-26T14:15:59;7.10;99.90
71754;DHT22;59593;51.716;7.016;2024-02-26T14:18:25;7.00;99.90
71754;DHT22;59593;51.716;7.016;2024-02-26T14:20:50;7.00;99.90
71754;DHT22;59593;51.716;7.016;2024-02-26T14:23:17;7.10;99.90
71754;DHT22;59593;51.716;7.016;2024-02-26T14:25:42;7.10;99.90
71754;DHT22;59593;51.716;7.016;2024-02-26T14:28:08;7.00;99.90
71754;DHT22;59593;51.716;7.016;2024-02-26T14:30:34;7.00;99.90
71754;DHT22;59593;51.716;7.016;2024-02-26T14:33:00;7.00;99.90
71754;DHT22;59593;51.716;7.016;2024-02-26T14:35:25;7.10;99.90
71754;DHT22;59593;51.716;7.016;2024-02-26T14:37:52;7.10;99.90
71754;DHT22;59593;51.716;7.016;2024-02-26T14:40:17;7.00;99.90
71754;DHT22;59593;51.716;7.016;2024-02-26T14:42:44;7.00;99.90
71754;DHT22;59593;51.716;7.016;2024-02-26T14:45:10;7.00;99.90
71754;DHT22;59593;51.716;7.016;2024-02-26T14:47:36;7.00;99.90
71754;DHT22;59593;51.716;7.016;2024-02-26T14:50:02;7.00;99.90
71754;DHT22;59593;51.716;7.016;2024-02-26T14:52:28;7.00;99.90
71754;DHT22;59593;51.716;7.016;2024-02-26T14:54:54;7.00;99.90
71754;DHT22;59593;51.716;7.016;2024-02-26T14:57:19;6.90;99.90
71754;DHT22;59593;51.716;7.016;2024-02-26T14:59:45;6.90;99.90
71754;DHT22;59593;51.716;7.016;2024-02-26T15:02:10;6.90;99.90
71754;DHT22;59593;51.716;7.016;2024-02-26T15:04:36;6.90;99.90
71754;DHT22;59593;51.716;7.016;2024-02-26T15:07:03;6.90;99.90
71754;DHT22;59593;51.716;7.016;2024-02-26T15:09:29;7.00;99.90
71754;DHT22;59593;51.716;7.016;2024-02-26T15:11:54;6.90;99.90
71754;DHT22;59593;51.716;7.016;2024-02-26T15:14:20;6.90;99.90
71754;DHT22;59593;51.716;7.016;2024-02-26T15:16:46;6.90;99.90
71754;DHT22;59593;51.716;7.016;2024-02-26T15:19:11;6.90;99.90
71754;DHT22;59593;51.716;7.016;2024-02-26T15:21:44;6.90;99.90
71754;DHT22;59593;51.716;7.016;2024-02-26T15:24:10;6.90;99.90
71754;DHT22;59593;51.716;7.016;2024-02-26T15:26:42;7.00;99.90
71754;DHT22;59593;51.716;7.016;2024-02-26T15:29:08;6.90;99.90
71754;DHT22;59593;51.716;7.016;2024-02-26T15:31:34;6.90;99.90
71754;DHT22;59593;51.716;7.016;2024-02-26T15:34:00;6.90;99.90
71754;DHT22;59593;51.716;7.016;2024-02-26T15:36:26;6.90;99.90
71754;DHT22;59593;51.716;7.016;2024-02-26T15:38:51;7.00;99.90
71754;DHT22;59593;51.716;7.016;2024-02-26T15:41:17;7.00;99.90
71754;DHT22;59593;51.716;7.016;2024-02-26T15:43:43;7.00;99.90
71754;DHT22;59593;51.716;7.016;2024-02-26T15:46:08;6.90;99.90
71754;DHT22;59593;51.716;7.016;2024-02-26T15:48:36;7.00;99.90